createdAt,value
2023-08-21T00:01:16.799Z,99569.65
2023-08-21T00:03:44.985Z,99571.64
2023-08-21T00:06:13.117Z,99567.01
2023-08-21T00:08:41.149Z,99562.98
2023-08-21T00:11:09.099Z,99558.14
2023-08-21T00:13:37.180Z,99555.08
2023-08-21T00:16:05.139Z,99554.41
2023-08-21T00:18:33.093Z,99556.22
2023-08-21T00:21:01.061Z,99554.56
2023-08-21T00:23:28.987Z,99554.61
2023-08-21T00:25:56.907Z,99553.20
2023-08-21T00:28:24.878Z,99555.14
2023-08-21T00:31:00.886Z,99564.42
2023-08-21T00:33:29.601Z,99564.94
2023-08-21T00:35:57.802Z,99570.19
2023-08-21T00:38:26.297Z,99570.58
2023-08-21T00:40:54.329Z,99566.83
2023-08-21T00:43:22.343Z,99562.75
2023-08-21T00:45:51.867Z,99562.52
2023-08-21T00:48:20.771Z,99563.79
2023-08-21T00:50:49.373Z,99564.40
2023-08-21T00:53:19.078Z,99567.38
2023-08-21T00:55:47.212Z,99564.21
2023-08-21T00:58:15.224Z,99563.85
2023-08-21T01:00:48.622Z,99563.39
2023-08-21T01:03:17.072Z,99562.54
2023-08-21T01:05:45.698Z,99563.92
2023-08-21T01:08:52.679Z,99561.66
2023-08-21T01:11:32.318Z,99560.20
2023-08-21T01:14:15.355Z,99561.09
2023-08-21T01:16:47.209Z,99564.92
2023-08-21T01:19:33.315Z,99563.33
2023-08-21T01:22:01.885Z,99566.08
2023-08-21T01:24:30.002Z,99570.36
2023-08-21T01:26:57.997Z,99575.52
2023-08-21T01:29:26.495Z,99575.62
2023-08-21T01:32:06.613Z,99575.00
2023-08-21T01:34:35.648Z,99572.36
2023-08-21T01:37:05.324Z,99572.94
2023-08-21T01:39:33.988Z,99577.77
2023-08-21T01:42:04.317Z,99580.30
2023-08-21T01:44:33.761Z,99583.51
2023-08-21T01:47:04.214Z,99583.06
2023-08-21T01:49:32.183Z,99590.39
2023-08-21T01:52:00.468Z,99613.39
2023-08-21T01:54:28.509Z,99634.29
2023-08-21T01:56:56.462Z,99634.09
2023-08-21T01:59:25.690Z,99629.92
2023-08-21T02:01:54.936Z,99620.92
2023-08-21T02:04:23.420Z,99631.16
2023-08-21T02:06:51.360Z,99638.88
2023-08-21T02:09:19.415Z,99629.82
2023-08-21T02:11:47.529Z,99625.90
2023-08-21T02:14:15.487Z,99618.66
2023-08-21T02:16:43.790Z,99618.33
2023-08-21T02:19:11.992Z,99631.36
2023-08-21T02:21:40.036Z,99639.61
2023-08-21T02:24:08.126Z,99631.52
2023-08-21T02:26:36.180Z,99631.82
2023-08-21T02:29:04.981Z,99622.55
2023-08-21T02:31:33.059Z,99626.59
2023-08-21T02:34:01.041Z,99618.89
2023-08-21T02:36:29.537Z,99599.67
2023-08-21T02:38:57.544Z,99602.00
2023-08-21T02:41:25.533Z,99607.41
2023-08-21T02:43:53.455Z,99609.72
2023-08-21T02:46:22.972Z,99609.53
2023-08-21T02:48:50.939Z,99606.09
2023-08-21T02:51:19.213Z,99607.31
2023-08-21T02:53:47.266Z,99610.15
2023-08-21T02:56:15.275Z,99619.77
2023-08-21T02:58:43.680Z,99626.90
2023-08-21T03:01:11.794Z,99630.06
2023-08-21T03:03:39.820Z,99641.64
2023-08-21T03:06:08.105Z,99648.73
2023-08-21T03:08:36.662Z,99648.70
2023-08-21T03:11:04.692Z,99647.20
2023-08-21T03:13:32.660Z,99650.73
2023-08-21T03:16:00.619Z,99654.45
2023-08-21T03:18:32.667Z,99650.77
2023-08-21T03:21:00.809Z,99645.14
2023-08-21T03:24:28.106Z,99643.21
2023-08-21T03:26:56.137Z,99647.40
2023-08-21T03:29:24.239Z,99647.73
2023-08-21T03:31:55.422Z,99647.10
2023-08-21T03:34:23.595Z,99647.85
2023-08-21T03:36:54.007Z,99648.60
2023-08-21T03:39:22.055Z,99657.16
2023-08-21T03:41:50.051Z,99658.47
2023-08-21T03:44:18.096Z,99659.76
2023-08-21T03:46:46.132Z,99661.26
2023-08-21T03:49:14.342Z,99663.05
2023-08-21T03:51:42.382Z,99661.34
2023-08-21T03:54:12.151Z,99650.70
2023-08-21T03:56:40.205Z,99656.36
2023-08-21T03:59:08.261Z,99661.80
2023-08-21T04:01:36.314Z,99661.13
2023-08-21T04:04:04.814Z,99661.55
2023-08-21T04:06:32.920Z,99655.28
2023-08-21T04:09:01.115Z,99662.20
2023-08-21T04:11:30.383Z,99670.43
2023-08-21T04:14:00.209Z,99676.21
2023-08-21T04:16:29.983Z,99677.21
2023-08-21T04:18:58.913Z,99672.77
2023-08-21T04:21:26.932Z,99669.98
2023-08-21T04:23:54.922Z,99671.71
2023-08-21T04:26:23.010Z,99671.39
2023-08-21T04:28:50.948Z,99663.86
2023-08-21T04:31:18.924Z,99662.06
2023-08-21T04:33:48.228Z,99657.46
2023-08-21T04:36:17.444Z,99659.09
2023-08-21T04:38:47.395Z,99655.27
2023-08-21T04:41:15.390Z,99658.05
2023-08-21T04:43:45.943Z,99657.81
2023-08-21T04:46:13.990Z,99661.09
2023-08-21T04:48:43.994Z,99663.33
2023-08-21T04:51:14.399Z,99660.77
2023-08-21T04:53:42.785Z,99661.15
2023-08-21T04:56:14.304Z,99663.84
2023-08-21T04:58:42.422Z,99669.65
2023-08-21T05:01:10.655Z,99674.73
2023-08-21T05:03:43.980Z,99683.52
2023-08-21T05:06:12.705Z,99687.35
2023-08-21T05:08:40.807Z,99684.29
2023-08-21T05:11:09.748Z,99679.02
2023-08-21T05:13:38.858Z,99675.67
2023-08-21T05:16:11.338Z,99679.66
2023-08-21T05:18:40.403Z,99686.31
2023-08-21T05:21:08.604Z,99690.68
2023-08-21T05:23:37.763Z,99694.25
2023-08-21T05:26:08.544Z,99695.59
2023-08-21T05:28:36.528Z,99701.53
2023-08-21T05:31:04.625Z,99705.84
2023-08-21T05:33:43.722Z,99713.77
2023-08-21T05:36:12.229Z,99712.83
2023-08-21T05:38:40.365Z,99714.64
2023-08-21T05:41:08.391Z,99715.38
2023-08-21T05:43:36.339Z,99715.25
2023-08-21T05:46:07.481Z,99706.67
2023-08-21T05:48:36.253Z,99698.46
2023-08-21T05:51:04.531Z,99691.52
2023-08-21T05:53:33.480Z,99688.48
2023-08-21T05:56:02.241Z,99687.70
2023-08-21T05:58:32.666Z,99686.94
2023-08-21T06:01:00.789Z,99689.24
2023-08-21T06:03:29.273Z,99696.89
2023-08-21T06:06:08.414Z,99708.77
2023-08-21T06:08:36.452Z,99709.36
2023-08-21T06:11:04.531Z,99705.84
2023-08-21T06:13:32.616Z,99706.96
2023-08-21T06:16:01.578Z,99716.21
2023-08-21T06:18:30.178Z,99715.44
2023-08-21T06:20:58.196Z,99711.39
2023-08-21T06:23:26.153Z,99714.73
2023-08-21T06:25:54.146Z,99722.79
2023-08-21T06:28:23.078Z,99714.02
2023-08-21T06:30:58.097Z,99711.05
2023-08-21T06:33:26.411Z,99711.08
2023-08-21T06:35:56.461Z,99717.43
2023-08-21T06:38:24.407Z,99720.08
2023-08-21T06:40:52.485Z,99725.70
2023-08-21T06:43:20.564Z,99727.12
2023-08-21T06:45:48.939Z,99731.20
2023-08-21T06:48:17.079Z,99736.60
2023-08-21T06:50:45.412Z,99736.34
2023-08-21T06:53:13.413Z,99738.91
2023-08-21T06:55:41.405Z,99740.99
2023-08-21T06:58:09.324Z,99738.00
2023-08-21T07:00:37.452Z,99740.08
2023-08-21T07:03:08.646Z,99739.89
2023-08-21T07:05:38.596Z,99736.01
2023-08-21T07:08:07.583Z,99732.77
2023-08-21T07:10:39.053Z,99740.55
2023-08-21T07:13:07.110Z,99745.18
2023-08-21T07:15:35.127Z,99740.60
2023-08-21T07:18:03.820Z,99735.14
2023-08-21T07:20:31.993Z,99730.91
2023-08-21T07:23:00.048Z,99724.42
2023-08-21T07:25:29.718Z,99728.69
2023-08-21T07:27:58.442Z,99731.81
2023-08-21T07:30:26.524Z,99730.96
2023-08-21T07:32:55.127Z,99734.64
2023-08-21T07:35:23.299Z,99732.77
2023-08-21T07:37:51.435Z,99732.42
2023-08-21T07:40:19.391Z,99736.32
2023-08-21T07:42:47.441Z,99732.77
2023-08-21T07:45:15.535Z,99732.71
2023-08-21T07:47:43.621Z,99736.34
2023-08-21T07:50:11.741Z,99737.57
2023-08-21T07:52:40.195Z,99738.41
2023-08-21T07:55:09.167Z,99744.27
2023-08-21T07:57:37.442Z,99744.19
2023-08-21T08:00:09.525Z,99739.35
2023-08-21T08:02:41.553Z,99742.36
2023-08-21T08:05:10.289Z,99749.56
2023-08-21T08:07:38.458Z,99749.67
2023-08-21T08:10:06.745Z,99743.46
2023-08-21T08:12:34.954Z,99750.63
2023-08-21T08:15:03.568Z,99750.23
2023-08-21T08:17:31.599Z,99746.28
2023-08-21T08:19:59.687Z,99742.41
2023-08-21T08:22:27.674Z,99745.18
2023-08-21T08:24:55.640Z,99741.05
2023-08-21T08:27:23.721Z,99738.38
2023-08-21T08:29:51.661Z,99738.09
2023-08-21T08:32:19.642Z,99738.48
2023-08-21T08:34:48.023Z,99736.19
2023-08-21T08:37:15.975Z,99730.14
2023-08-21T08:39:43.967Z,99727.80
2023-08-21T08:42:12.148Z,99722.94
2023-08-21T08:44:42.217Z,99729.66
2023-08-21T08:47:11.964Z,99725.88
2023-08-21T08:49:40.130Z,99727.48
2023-08-21T08:52:08.626Z,99726.98
2023-08-21T08:54:38.972Z,99729.29
2023-08-21T08:57:06.936Z,99729.79
2023-08-21T08:59:34.975Z,99730.68
2023-08-21T09:02:03.920Z,99730.80
2023-08-21T09:04:31.861Z,99730.06
2023-08-21T09:07:19.523Z,99724.14
2023-08-21T09:09:53.752Z,99723.67
2023-08-21T09:12:21.932Z,99725.18
2023-08-21T09:14:50.168Z,99722.25
2023-08-21T09:17:18.312Z,99717.67
2023-08-21T09:19:46.405Z,99710.61
2023-08-21T09:22:22.090Z,99705.95
2023-08-21T09:25:08.543Z,99703.41
2023-08-21T09:27:41.176Z,99705.64
2023-08-21T09:30:17.271Z,99701.70
2023-08-21T09:32:55.631Z,99702.15
2023-08-21T09:35:25.090Z,99701.87
2023-08-21T09:37:56.584Z,99698.11
2023-08-21T09:40:24.731Z,99698.79
2023-08-21T09:43:00.393Z,99705.80
2023-08-21T09:45:30.834Z,99713.55
2023-08-21T09:48:00.027Z,99707.89
2023-08-21T09:50:30.479Z,99696.91
2023-08-21T09:52:59.973Z,99695.94
2023-08-21T09:55:30.988Z,99694.81
2023-08-21T09:58:03.295Z,99693.69
2023-08-21T10:00:34.123Z,99691.08
2023-08-21T10:03:04.482Z,99686.20
2023-08-21T10:05:34.199Z,99685.71
2023-08-21T10:08:06.556Z,99688.12
2023-08-21T10:10:36.903Z,99692.47
2023-08-21T10:13:06.181Z,99695.26
2023-08-21T10:15:35.044Z,99697.81
2023-08-21T10:18:22.092Z,99695.85
2023-08-21T10:20:52.893Z,99691.75
2023-08-21T10:23:31.773Z,99693.85
2023-08-21T10:26:02.178Z,99691.80
2023-08-21T10:28:53.301Z,99693.34
2023-08-21T10:31:28.020Z,99691.77
2023-08-21T10:33:56.613Z,99691.27
2023-08-21T10:36:40.428Z,99693.73
2023-08-21T10:39:14.739Z,99692.61
2023-08-21T10:41:42.934Z,99696.27
2023-08-21T10:44:10.954Z,99694.17
2023-08-21T10:46:52.137Z,99691.66
2023-08-21T10:49:20.209Z,99696.75
2023-08-21T10:51:50.867Z,99698.84
2023-08-21T10:54:19.419Z,99694.89
2023-08-21T10:56:47.395Z,99691.77
2023-08-21T10:59:15.331Z,99683.69
2023-08-21T11:01:46.862Z,99681.06
2023-08-21T11:04:15.241Z,99686.79
2023-08-21T11:06:43.201Z,99688.73
2023-08-21T11:09:14.850Z,99679.70
2023-08-21T11:11:44.875Z,99674.93
2023-08-21T11:14:12.835Z,99670.27
2023-08-21T11:16:41.370Z,99667.27
2023-08-21T11:19:09.443Z,99663.98
2023-08-21T11:21:37.431Z,99666.39
2023-08-21T11:24:05.663Z,99663.08
2023-08-21T11:26:33.620Z,99661.88
2023-08-21T11:29:03.932Z,99662.03
2023-08-21T11:31:31.948Z,99659.61
2023-08-21T11:34:05.493Z,99663.92
2023-08-21T11:36:40.664Z,99665.07
2023-08-21T11:39:10.058Z,99667.13
2023-08-21T11:41:58.157Z,99672.23
2023-08-21T11:44:27.094Z,99673.05
2023-08-21T11:46:55.075Z,99669.73
2023-08-21T11:49:25.995Z,99668.16
2023-08-21T11:51:53.985Z,99667.46
2023-08-21T11:54:21.909Z,99668.88
2023-08-21T11:56:49.896Z,99665.61
2023-08-21T11:59:24.741Z,99668.58
2023-08-21T12:01:53.359Z,99667.88
2023-08-21T12:04:21.506Z,99665.21
2023-08-21T12:06:49.754Z,99657.91
2023-08-21T12:09:20.121Z,99657.80
2023-08-21T12:11:48.075Z,99651.82
2023-08-21T12:14:16.039Z,99642.29
2023-08-21T12:16:44.144Z,99641.45
2023-08-21T12:19:13.193Z,99641.08
2023-08-21T12:21:41.510Z,99638.73
2023-08-21T12:24:09.750Z,99638.48
2023-08-21T12:26:49.571Z,99640.23
2023-08-21T12:29:18.998Z,99638.45
2023-08-21T12:31:48.229Z,99636.76
2023-08-21T12:34:16.339Z,99634.77
2023-08-21T12:36:44.363Z,99634.08
2023-08-21T12:39:12.371Z,99631.92
2023-08-21T12:41:40.296Z,99627.27
2023-08-21T12:44:10.154Z,99622.38
2023-08-21T12:46:39.478Z,99620.77
2023-08-21T12:49:07.644Z,99620.35
2023-08-21T12:51:35.753Z,99618.98
2023-08-21T12:54:04.554Z,99619.11
2023-08-21T12:56:35.075Z,99617.39
2023-08-21T12:59:04.303Z,99621.09
2023-08-21T13:01:35.427Z,99619.09
2023-08-21T13:04:04.410Z,99617.49
2023-08-21T13:06:32.719Z,99615.27
2023-08-21T13:09:00.744Z,99614.94
2023-08-21T13:11:29.611Z,99613.52
2023-08-21T13:13:57.600Z,99615.02
2023-08-21T13:16:25.617Z,99615.13
2023-08-21T13:18:53.592Z,99612.20
2023-08-21T13:21:21.622Z,99612.82
2023-08-21T13:23:49.602Z,99610.70
2023-08-21T13:26:17.680Z,99607.65
2023-08-21T13:28:46.031Z,99606.10
2023-08-21T13:31:14.075Z,99605.13
2023-08-21T13:33:51.551Z,99602.77
2023-08-21T13:36:24.812Z,99598.59
2023-08-21T13:38:53.343Z,99597.06
2023-08-21T13:41:21.362Z,99596.35
2023-08-21T13:43:50.999Z,99595.65
2023-08-21T13:46:20.750Z,99590.98
2023-08-21T13:48:48.690Z,99590.87
2023-08-21T13:51:18.525Z,99593.27
2023-08-21T13:53:47.809Z,99587.11
2023-08-21T13:56:15.767Z,99583.88
2023-08-21T13:58:43.788Z,99585.02
2023-08-21T14:01:11.896Z,99584.27
2023-08-21T14:03:40.021Z,99581.35
2023-08-21T14:06:11.751Z,99581.14
2023-08-21T14:08:40.126Z,99577.98
2023-08-21T14:11:08.157Z,99577.77
2023-08-21T14:13:36.123Z,99573.98
2023-08-21T14:16:04.348Z,99579.88
2023-08-21T14:18:32.353Z,99580.42
2023-08-21T14:21:00.448Z,99576.16
2023-08-21T14:23:28.987Z,99576.41
2023-08-21T14:25:58.346Z,99577.77
2023-08-21T14:28:26.339Z,99581.00
2023-08-21T14:30:54.798Z,99579.92
2023-08-21T14:33:22.982Z,99580.13
2023-08-21T14:35:51.059Z,99581.55
2023-08-21T14:38:19.041Z,99574.48
2023-08-21T14:40:47.566Z,99574.86
2023-08-21T14:43:15.559Z,99572.62
2023-08-21T14:45:43.585Z,99568.34
2023-08-21T14:48:11.970Z,99569.92
2023-08-21T14:50:40.019Z,99570.70
2023-08-21T14:53:10.543Z,99566.90
2023-08-21T14:55:38.587Z,99567.24
2023-08-21T14:58:08.426Z,99565.71
2023-08-21T15:00:36.709Z,99568.90
2023-08-21T15:03:04.939Z,99565.32
2023-08-21T15:05:33.083Z,99560.27
2023-08-21T15:08:02.616Z,99557.45
2023-08-21T15:10:30.747Z,99557.35
2023-08-21T15:12:58.770Z,99558.45
2023-08-21T15:15:26.802Z,99557.52
2023-08-21T15:17:54.791Z,99557.91
2023-08-21T15:20:22.838Z,99562.00
2023-08-21T15:22:53.413Z,99567.83
2023-08-21T15:25:21.707Z,99569.41
2023-08-21T15:27:49.702Z,99573.29
2023-08-21T15:30:18.553Z,99574.46
2023-08-21T15:32:48.642Z,99573.77
2023-08-21T15:35:16.896Z,99572.17
2023-08-21T15:37:46.473Z,99579.39
2023-08-21T15:40:16.092Z,99582.66
2023-08-21T15:42:44.979Z,99578.14
2023-08-21T15:45:13.203Z,99576.23
2023-08-21T15:47:48.686Z,99573.55
2023-08-21T15:50:20.989Z,99573.38
2023-08-21T15:52:49.882Z,99572.80
2023-08-21T15:55:18.097Z,99572.89
2023-08-21T15:57:46.572Z,99575.65
2023-08-21T16:00:14.841Z,99578.18
2023-08-21T16:02:43.298Z,99581.84
2023-08-21T16:05:11.879Z,99577.17
2023-08-21T16:07:40.867Z,99575.16
2023-08-21T16:10:09.344Z,99573.34
2023-08-21T16:12:37.781Z,99575.45
2023-08-21T16:15:07.239Z,99576.35
2023-08-21T16:17:37.506Z,99582.71
2023-08-21T16:20:08.478Z,99578.04
2023-08-21T16:22:38.203Z,99576.79
2023-08-21T16:25:06.747Z,99577.48
2023-08-21T16:27:34.781Z,99574.52
2023-08-21T16:30:02.964Z,99567.09
2023-08-21T16:32:31.089Z,99568.25
2023-08-21T16:35:00.232Z,99569.20
2023-08-21T16:37:28.313Z,99566.69
2023-08-21T16:39:56.370Z,99568.14
2023-08-21T16:42:24.591Z,99568.06
2023-08-21T16:44:52.585Z,99573.62
2023-08-21T16:47:20.659Z,99577.50
2023-08-21T16:49:49.449Z,99576.84
2023-08-21T16:52:19.747Z,99580.39
2023-08-21T16:54:47.727Z,99585.27
2023-08-21T16:57:15.901Z,99586.59
2023-08-21T16:59:43.948Z,99583.92
2023-08-21T17:02:12.045Z,99586.52
2023-08-21T17:04:40.069Z,99588.66
2023-08-21T17:07:08.161Z,99590.36
2023-08-21T17:09:36.764Z,99595.64
2023-08-21T17:12:05.093Z,99594.15
2023-08-21T17:14:33.152Z,99589.39
2023-08-21T17:17:01.183Z,99590.05
2023-08-21T17:19:29.560Z,99594.63
2023-08-21T17:21:57.521Z,99590.73
2023-08-21T17:24:25.605Z,99589.05
2023-08-21T17:26:54.197Z,99584.73
2023-08-21T17:29:22.525Z,99582.65
2023-08-21T17:31:51.045Z,99583.10
2023-08-21T17:34:19.072Z,99583.27
2023-08-21T17:36:50.480Z,99582.48
2023-08-21T17:39:18.909Z,99583.30
2023-08-21T17:41:47.049Z,99585.98
2023-08-21T17:44:15.442Z,99588.88
2023-08-21T17:46:43.598Z,99590.02
2023-08-21T17:49:12.468Z,99586.95
2023-08-21T17:51:40.721Z,99588.38
2023-08-21T17:54:08.925Z,99587.08
2023-08-21T17:56:36.925Z,99587.32
2023-08-21T17:59:04.994Z,99585.04
2023-08-21T18:01:36.189Z,99583.48
2023-08-21T18:04:04.701Z,99580.55
2023-08-21T18:06:32.702Z,99582.92
2023-08-21T18:09:00.792Z,99586.60
2023-08-21T18:11:28.788Z,99587.61
2023-08-21T18:13:56.907Z,99586.91
2023-08-21T18:16:25.168Z,99585.91
2023-08-21T18:18:53.132Z,99590.34
2023-08-21T18:21:21.850Z,99594.08
2023-08-21T18:23:50.085Z,99600.64
2023-08-21T18:26:18.117Z,99605.94
2023-08-21T18:28:46.153Z,99607.89
2023-08-21T18:31:14.217Z,99608.06
2023-08-21T18:33:42.366Z,99613.81
2023-08-21T18:36:11.483Z,99616.20
2023-08-21T18:38:39.503Z,99618.95
2023-08-21T18:41:08.926Z,99619.30
2023-08-21T18:43:36.978Z,99623.27
2023-08-21T18:46:05.069Z,99623.42
2023-08-21T18:48:33.214Z,99621.50
2023-08-21T18:51:01.332Z,99624.05
2023-08-21T18:53:29.392Z,99624.70
2023-08-21T18:55:57.393Z,99624.54
2023-08-21T18:58:25.342Z,99624.21
2023-08-21T19:00:57.232Z,99624.13
2023-08-21T19:03:25.322Z,99626.14
2023-08-21T19:05:53.580Z,99626.04
2023-08-21T19:08:25.283Z,99628.73
2023-08-21T19:10:54.017Z,99627.89
2023-08-21T19:13:22.063Z,99628.44
2023-08-21T19:15:51.981Z,99627.06
2023-08-21T19:18:20.008Z,99629.56
2023-08-21T19:20:48.120Z,99628.95
2023-08-21T19:23:16.111Z,99629.08
2023-08-21T19:25:44.597Z,99631.19
2023-08-21T19:28:14.607Z,99627.02
2023-08-21T19:30:46.756Z,99625.46
2023-08-21T19:33:15.009Z,99623.77
2023-08-21T19:35:44.210Z,99626.31
2023-08-21T19:38:14.762Z,99623.69
2023-08-21T19:40:44.585Z,99620.73
2023-08-21T19:43:12.911Z,99622.84
2023-08-21T19:45:43.406Z,99623.64
2023-08-21T19:48:11.576Z,99626.44
2023-08-21T19:50:39.783Z,99630.96
2023-08-21T19:53:07.944Z,99632.17
2023-08-21T19:55:35.971Z,99634.75
2023-08-21T19:58:04.639Z,99636.58
2023-08-21T20:00:32.676Z,99635.52
2023-08-21T20:03:00.930Z,99636.06
2023-08-21T20:05:29.145Z,99639.23
2023-08-21T20:07:57.539Z,99638.48
2023-08-21T20:10:25.547Z,99636.52
2023-08-21T20:12:53.536Z,99631.84
2023-08-21T20:15:21.769Z,99638.58
2023-08-21T20:17:50.114Z,99641.35
2023-08-21T20:20:18.202Z,99641.33
2023-08-21T20:22:46.223Z,99642.17
2023-08-21T20:25:14.304Z,99642.16
2023-08-21T20:27:42.776Z,99641.88
2023-08-21T20:30:12.565Z,99641.85
2023-08-21T20:32:40.561Z,99640.39
2023-08-21T20:35:09.396Z,99644.77
2023-08-21T20:37:39.073Z,99648.17
2023-08-21T20:40:10.560Z,99653.22
2023-08-21T20:42:40.636Z,99651.13
2023-08-21T20:45:10.680Z,99654.77
2023-08-21T20:47:39.059Z,99655.05
2023-08-21T20:50:09.262Z,99654.17
2023-08-21T20:52:37.526Z,99655.39
2023-08-21T20:55:06.436Z,99652.91
2023-08-21T20:57:34.403Z,99653.84
2023-08-21T21:00:02.373Z,99654.17
2023-08-21T21:02:30.427Z,99655.73
2023-08-21T21:04:58.549Z,99659.21
2023-08-21T21:07:26.726Z,99658.27
2023-08-21T21:09:55.462Z,99648.05
2023-08-21T21:12:23.494Z,99643.09
2023-08-21T21:14:51.444Z,99638.23
2023-08-21T21:17:19.736Z,99638.40
2023-08-21T21:19:47.707Z,99640.59
2023-08-21T21:22:15.935Z,99642.85
2023-08-21T21:24:44.039Z,99640.01
2023-08-21T21:27:12.045Z,99640.10
2023-08-21T21:29:40.073Z,99639.07
2023-08-21T21:32:09.297Z,99637.35
2023-08-21T21:34:37.320Z,99635.93
2023-08-21T21:37:06.891Z,99637.60
2023-08-21T21:39:36.387Z,99640.31
2023-08-21T21:42:04.924Z,99636.70
2023-08-21T21:44:32.901Z,99638.36
2023-08-21T21:47:01.144Z,99638.40
2023-08-21T21:49:29.163Z,99637.46
2023-08-21T21:51:57.180Z,99635.88
2023-08-21T21:54:25.347Z,99634.15
2023-08-21T21:56:53.392Z,99633.25
2023-08-21T21:59:21.489Z,99634.97
2023-08-21T22:01:49.576Z,99637.35
2023-08-21T22:04:17.789Z,99630.52
2023-08-21T22:06:46.931Z,99628.08
2023-08-21T22:09:16.086Z,99626.19
2023-08-21T22:11:44.050Z,99624.28
2023-08-21T22:14:12.055Z,99625.27
2023-08-21T22:16:40.076Z,99628.85
2023-08-21T22:19:08.072Z,99632.00
2023-08-21T22:21:36.105Z,99630.83
2023-08-21T22:24:04.349Z,99630.05
2023-08-21T22:26:32.299Z,99627.84
2023-08-21T22:29:00.761Z,99627.30
2023-08-21T22:31:41.105Z,99626.34
2023-08-21T22:34:10.627Z,99627.48
2023-08-21T22:36:38.642Z,99627.18
2023-08-21T22:39:06.607Z,99626.94
2023-08-21T22:41:35.112Z,99624.45
2023-08-21T22:44:03.132Z,99625.66
2023-08-21T22:46:31.125Z,99623.20
2023-08-21T22:48:59.164Z,99617.25
2023-08-21T22:51:27.128Z,99615.36
2023-08-21T22:53:55.084Z,99615.90
2023-08-21T22:56:23.025Z,99614.01
2023-08-21T22:58:50.973Z,99613.37
2023-08-21T23:01:19.026Z,99612.36
2023-08-21T23:03:47.200Z,99611.16
2023-08-21T23:06:15.143Z,99604.62
2023-08-21T23:08:43.150Z,99602.02
2023-08-21T23:11:13.060Z,99601.37
2023-08-21T23:13:41.115Z,99599.33
2023-08-21T23:16:09.344Z,99599.64
2023-08-21T23:18:37.647Z,99601.23
2023-08-21T23:21:08.762Z,99604.21
2023-08-21T23:23:36.783Z,99604.30
2023-08-21T23:26:05.393Z,99604.69
2023-08-21T23:28:33.481Z,99605.65
2023-08-21T23:31:01.645Z,99602.55
2023-08-21T23:33:30.590Z,99603.45
2023-08-21T23:35:58.709Z,99606.33
2023-08-21T23:38:26.882Z,99606.77
2023-08-21T23:40:55.517Z,99611.89
2023-08-21T23:43:23.848Z,99613.08
2023-08-21T23:45:52.642Z,99611.67
2023-08-21T23:48:20.673Z,99607.97
2023-08-21T23:50:48.704Z,99605.42
2023-08-21T23:53:16.648Z,99607.94
2023-08-21T23:55:44.604Z,99607.87
2023-08-21T23:58:12.565Z,99603.05
